PWSweather.com
Personal Weather Stations
Station Observations
21805
AntwerpBE

AntwerpBE

Lat: 51.28072820000001, Lon: 4.420431000000008

Elevation: 12

Station Type: Davis VP Pro II

http://www.akker.be

Latest ConditionsUpdated 10:45:00 PM GMT+01:01 Sunday, Jan 19, 2020
Currently Today's Max Today's Min Today's Average
Temperature 35.5°F1.9°C 47.8°F8.8°C 35.5°F1.9°C 40.7°F4.8°C
Dew Point 31.7°F-0.2°C 38.4°F3.6°C 31.2°F-0.4°C 34.7°F1.5°C
Winds Calm Calm 5.8 mph -9.3 kmh - - 0.7 mph 1.1 kmh
Wind Gusts -- 11.5 mph18.5 kmh - -
Humidity 86% 89% 65% 79%
Pressure 30.94 in1047.7 mb 30.94 in1047.7 mb 30.48 in1032.2 mb -
Precipitation - 0.02 in0.5 mm - -
Hour Temp Dew Point Humidity Winds Wind Gusts Pressure Precip Precip Rate Daily Precip Total
10:45 PM 35.5°F1.9°C 31.7°F-0.2°C 86% Calm Calm -- 30.94 in1047.7 mb - 0.02 in0.5 mm 0.02 in0.5 mm
10:39 PM 35.5°F1.9°C 31.7°F-0.2°C 86% Calm Calm -- 30.94 in1047.7 mb - 0.02 in0.5 mm 0.02 in0.5 mm
10:33 PM 35.5°F1.9°C 31.4°F-0.3°C 85% Calm Calm -- 30.94 in1047.7 mb - 0.02 in0.5 mm 0.02 in0.5 mm
10:28 PM 35.5°F1.9°C 31.4°F-0.3°C 85% Calm Calm -- 30.94 in1047.7 mb - 0.02 in0.5 mm 0.02 in0.5 mm
10:22 PM 35.5°F1.9°C 31.4°F-0.3°C 85% Calm Calm -- 30.94 in1047.7 mb - 0.02 in0.5 mm 0.02 in0.5 mm
10:16 PM 35.6°F2.0°C 31.5°F-0.3°C 85% Calm Calm -- 30.94 in1047.7 mb - 0.02 in0.5 mm 0.02 in0.5 mm
10:11 PM 35.7°F2.1°C 31.6°F-0.2°C 85% Calm Calm -- 30.94 in1047.7 mb - 0.02 in0.5 mm 0.02 in0.5 mm
10:05 PM 35.7°F2.1°C 31.6°F-0.2°C 85% Calm Calm -- 30.93 in1047.4 mb - 0.02 in0.5 mm 0.02 in0.5 mm
10:00 PM 35.7°F2.1°C 31.4°F-0.3°C 84% Calm Calm -- 30.93 in1047.4 mb - 0.02 in0.5 mm 0.02 in0.5 mm
09:54 PM 35.8°F2.1°C 31.4°F-0.3°C 84% Calm Calm -- 30.93 in1047.4 mb - 0.02 in0.5 mm 0.02 in0.5 mm
09:48 PM 35.9°F2.2°C 31.2°F-0.4°C 83% Calm Calm -- 30.93 in1047.4 mb - 0.02 in0.5 mm 0.02 in0.5 mm
09:43 PM 36.1°F2.3°C 31.4°F-0.3°C 83% Calm Calm -- 30.93 in1047.4 mb - 0.02 in0.5 mm 0.02 in0.5 mm
09:37 PM 36.1°F2.3°C 31.5°F-0.3°C 83% Calm Calm -- 30.93 in1047.4 mb - 0.02 in0.5 mm 0.02 in0.5 mm
09:31 PM 36.4°F2.4°C 31.7°F-0.2°C 83% Calm Calm -- 30.93 in1047.4 mb - 0.02 in0.5 mm 0.02 in0.5 mm
09:26 PM 36.5°F2.5°C 31.8°F-0.1°C 83% Calm Calm -- 30.93 in1047.4 mb - 0.02 in0.5 mm 0.02 in0.5 mm
09:20 PM 36.6°F2.6°C 31.6°F-0.2°C 82% Calm Calm -- 30.92 in1047.1 mb - 0.02 in0.5 mm 0.02 in0.5 mm
09:15 PM 36.7°F2.6°C 31.8°F-0.1°C 82% Calm Calm -- 30.92 in1047.1 mb - 0.02 in0.5 mm 0.02 in0.5 mm
09:09 PM 37.0°F2.8°C 31.7°F-0.2°C 81% Calm Calm -- 30.92 in1047.1 mb - 0.02 in0.5 mm 0.02 in0.5 mm
09:03 PM 37.0°F2.8°C 31.7°F-0.2°C 81% Calm Calm -- 30.92 in1047.1 mb - 0.02 in0.5 mm 0.02 in0.5 mm
08:58 PM 37.3°F2.9°C 32.0°F0.0°C 81% Calm Calm -- 30.92 in1047.1 mb - 0.02 in0.5 mm 0.02 in0.5 mm
08:52 PM 37.4°F3.0°C 32.1°F0.1°C 81% Calm Calm -- 30.91 in1046.7 mb - 0.02 in0.5 mm 0.02 in0.5 mm
08:46 PM 37.6°F3.1°C 32.3°F0.2°C 81% Calm Calm -- 30.91 in1046.7 mb - 0.02 in0.5 mm 0.02 in0.5 mm
08:41 PM 37.8°F3.2°C 32.5°F0.3°C 81% Calm Calm -- 30.91 in1046.7 mb - 0.02 in0.5 mm 0.02 in0.5 mm
08:35 PM 37.9°F3.3°C 32.6°F0.3°C 81% Calm Calm -- 30.91 in1046.7 mb - 0.02 in0.5 mm 0.02 in0.5 mm
08:30 PM 38.0°F3.3°C 32.7°F0.4°C 81% Calm Calm -- 30.91 in1046.7 mb - 0.02 in0.5 mm 0.02 in0.5 mm
08:24 PM 38.1°F3.4°C 33.1°F0.6°C 82% Calm Calm -- 30.91 in1046.7 mb - 0.02 in0.5 mm 0.02 in0.5 mm
08:18 PM 38.2°F3.4°C 33.1°F0.6°C 82% Calm Calm -- 30.91 in1046.7 mb - 0.02 in0.5 mm 0.02 in0.5 mm
08:13 PM 38.3°F3.5°C 33.0°F0.6°C 81% Calm Calm -- 30.91 in1046.7 mb - 0.02 in0.5 mm 0.02 in0.5 mm
08:07 PM 38.4°F3.6°C 33.1°F0.6°C 81% Calm Calm -- 30.90 in1046.4 mb - 0.02 in0.5 mm 0.02 in0.5 mm
08:01 PM 38.5°F3.6°C 32.8°F0.4°C 80% Calm Calm -- 30.90 in1046.4 mb - 0.02 in0.5 mm 0.02 in0.5 mm
07:56 PM 38.5°F3.6°C 32.9°F0.5°C 80% Calm Calm -- 30.90 in1046.4 mb - 0.02 in0.5 mm 0.02 in0.5 mm
07:50 PM 38.8°F3.8°C 32.8°F0.4°C 79% Calm Calm -- 30.90 in1046.4 mb - 0.02 in0.5 mm 0.02 in0.5 mm
07:45 PM 38.8°F3.8°C 32.8°F0.4°C 79% Calm Calm -- 30.90 in1046.4 mb - 0.02 in0.5 mm 0.02 in0.5 mm
07:39 PM 39.1°F3.9°C 32.8°F0.4°C 78% Calm Calm -- 30.89 in1046.1 mb - 0.02 in0.5 mm 0.02 in0.5 mm
07:33 PM 39.3°F4.1°C 33.0°F0.6°C 78% Calm Calm -- 30.89 in1046.1 mb - 0.02 in0.5 mm 0.02 in0.5 mm
07:28 PM 39.5°F4.2°C 32.5°F0.3°C 76% Calm Calm -- 30.89 in1046.1 mb - 0.02 in0.5 mm 0.02 in0.5 mm
07:22 PM 39.7°F4.3°C 32.7°F0.4°C 76% Calm Calm -- 30.88 in1045.7 mb - 0.02 in0.5 mm 0.02 in0.5 mm
07:16 PM 40.0°F4.4°C 32.7°F0.4°C 75% Calm Calm -- 30.88 in1045.7 mb - 0.02 in0.5 mm 0.02 in0.5 mm
07:11 PM 40.1°F4.5°C 32.8°F0.4°C 75% Calm Calm -- 30.88 in1045.7 mb - 0.02 in0.5 mm 0.02 in0.5 mm
07:05 PM 40.5°F4.7°C 33.2°F0.7°C 75% Calm Calm -- 30.88 in1045.7 mb - 0.02 in0.5 mm 0.02 in0.5 mm
07:00 PM 40.6°F4.8°C 33.3°F0.7°C 75% Calm Calm -- 30.88 in1045.7 mb - 0.02 in0.5 mm 0.02 in0.5 mm
06:54 PM 40.9°F4.9°C 34.3°F1.3°C 77% Calm Calm -- 30.88 in1045.7 mb - 0.02 in0.5 mm 0.02 in0.5 mm
06:48 PM 41.1°F5.1°C 34.1°F1.2°C 76% Calm Calm -- 30.88 in1045.7 mb - 0.02 in0.5 mm 0.02 in0.5 mm
06:43 PM 41.3°F5.2°C 34.0°F1.1°C 75% Calm Calm -- 30.87 in1045.4 mb - 0.02 in0.5 mm 0.02 in0.5 mm
06:37 PM 41.4°F5.2°C 34.1°F1.2°C 75% Calm Calm -- 30.87 in1045.4 mb - 0.02 in0.5 mm 0.02 in0.5 mm
06:31 PM 41.6°F5.3°C 34.3°F1.3°C 75% Calm Calm -- 30.87 in1045.4 mb - 0.02 in0.5 mm 0.02 in0.5 mm
06:26 PM 41.6°F5.3°C 34.3°F1.3°C 75% Calm Calm -- 30.87 in1045.4 mb - 0.02 in0.5 mm 0.02 in0.5 mm
06:20 PM 42.0°F5.6°C 34.0°F1.1°C 73% Calm Calm -- 30.86 in1045.0 mb - 0.02 in0.5 mm 0.02 in0.5 mm
06:15 PM 42.2°F5.7°C 33.9°F1.1°C 72% Calm Calm -- 30.86 in1045.0 mb - 0.02 in0.5 mm 0.02 in0.5 mm
06:09 PM 42.5°F5.8°C 34.1°F1.2°C 72% Calm Calm -- 30.86 in1045.0 mb - 0.02 in0.5 mm 0.02 in0.5 mm
06:03 PM 42.7°F5.9°C 34.3°F1.3°C 72% Calm Calm -- 30.86 in1045.0 mb - 0.02 in0.5 mm 0.02 in0.5 mm
05:58 PM 42.9°F6.1°C 34.5°F1.4°C 72% Calm Calm -- 30.86 in1045.0 mb - 0.02 in0.5 mm 0.02 in0.5 mm
05:52 PM 43.1°F6.2°C 34.7°F1.5°C 72% Calm Calm -- 30.86 in1045.0 mb - 0.02 in0.5 mm 0.02 in0.5 mm
05:46 PM 43.3°F6.3°C 34.6°F1.4°C 71% Calm Calm -- 30.86 in1045.0 mb - 0.02 in0.5 mm 0.02 in0.5 mm
05:41 PM 43.6°F6.4°C 34.8°F1.6°C 71% Calm Calm -- 30.85 in1044.7 mb - 0.02 in0.5 mm 0.02 in0.5 mm
05:35 PM 43.8°F6.6°C 34.7°F1.5°C 70% Calm Calm -- 30.85 in1044.7 mb - 0.02 in0.5 mm 0.02 in0.5 mm
05:30 PM 44.0°F6.7°C 34.8°F1.6°C 70% Calm Calm -- 30.85 in1044.7 mb - 0.02 in0.5 mm 0.02 in0.5 mm
05:24 PM 44.3°F6.8°C 35.1°F1.7°C 70% Calm Calm -- 30.84 in1044.4 mb - 0.02 in0.5 mm 0.02 in0.5 mm
05:18 PM 44.4°F6.9°C 35.2°F1.8°C 70% Calm Calm -- 30.84 in1044.4 mb - 0.02 in0.5 mm 0.02 in0.5 mm
05:13 PM 44.8°F7.1°C 35.2°F1.8°C 69% Calm Calm -- 30.84 in1044.4 mb - 0.02 in0.5 mm 0.02 in0.5 mm
05:07 PM 45.0°F7.2°C 35.4°F1.9°C 69% Calm Calm 2.3 mph3.7 kmh 30.83 in1044.0 mb - 0.02 in0.5 mm 0.02 in0.5 mm
05:01 PM 45.1°F7.3°C 35.5°F1.9°C 69% Calm Calm -- 30.83 in1044.0 mb - 0.02 in0.5 mm 0.02 in0.5 mm
04:56 PM 45.3°F7.4°C 35.7°F2.1°C 69% Calm Calm -- 30.83 in1044.0 mb - 0.02 in0.5 mm 0.02 in0.5 mm
04:50 PM 45.6°F7.6°C 35.6°F2.0°C 68% Calm Calm 1.1 mph1.8 kmh 30.82 in1043.7 mb - 0.02 in0.5 mm 0.02 in0.5 mm
04:45 PM 45.6°F7.6°C 35.7°F2.1°C 68% 1.1 mph N1.8 kmh N 1.1 mph1.8 kmh 30.82 in1043.7 mb - 0.02 in0.5 mm 0.02 in0.5 mm
04:39 PM 45.8°F7.7°C 35.8°F2.1°C 68% Calm Calm -- 30.81 in1043.3 mb - 0.02 in0.5 mm 0.02 in0.5 mm
04:33 PM 45.9°F7.7°C 35.9°F2.2°C 68% 3.4 mph NNE5.5 kmh NNE 8.0 mph12.9 kmh 30.81 in1043.3 mb - 0.02 in0.5 mm 0.02 in0.5 mm
04:28 PM 45.9°F7.7°C 35.9°F2.2°C 68% Calm Calm 3.4 mph5.5 kmh 30.81 in1043.3 mb - 0.02 in0.5 mm 0.02 in0.5 mm
04:22 PM 46.0°F7.8°C 35.6°F2.0°C 67% 2.3 mph NW3.7 kmh NW 3.4 mph5.5 kmh 30.81 in1043.3 mb - 0.02 in0.5 mm 0.02 in0.5 mm
04:16 PM 46.1°F7.8°C 35.7°F2.1°C 67% Calm Calm 10.3 mph16.6 kmh 30.81 in1043.3 mb - 0.02 in0.5 mm 0.02 in0.5 mm
04:11 PM 46.1°F7.8°C 35.8°F2.1°C 67% 1.1 mph N1.8 kmh N -- 30.81 in1043.3 mb - 0.02 in0.5 mm 0.02 in0.5 mm
04:05 PM 46.5°F8.1°C 35.7°F2.1°C 66% 1.1 mph N1.8 kmh N 10.3 mph16.6 kmh 30.81 in1043.3 mb - 0.02 in0.5 mm 0.02 in0.5 mm
04:00 PM 46.6°F8.1°C 35.9°F2.2°C 66% Calm Calm 3.4 mph5.5 kmh 30.81 in1043.3 mb - 0.02 in0.5 mm 0.02 in0.5 mm
03:54 PM 46.8°F8.2°C 36.0°F2.2°C 66% 2.3 mph NE3.7 kmh NE 3.4 mph5.5 kmh 30.80 in1043.0 mb - 0.02 in0.5 mm 0.02 in0.5 mm
03:48 PM 46.9°F8.3°C 36.1°F2.3°C 66% 2.3 mph NNE3.7 kmh NNE 9.2 mph14.8 kmh 30.80 in1043.0 mb - 0.02 in0.5 mm 0.02 in0.5 mm
03:43 PM 47.0°F8.3°C 36.2°F2.3°C 66% 2.3 mph NNE3.7 kmh NNE 9.2 mph14.8 kmh 30.80 in1043.0 mb - 0.02 in0.5 mm 0.02 in0.5 mm
03:37 PM 47.1°F8.4°C 35.9°F2.2°C 65% 1.1 mph N1.8 kmh N -- 30.80 in1043.0 mb - 0.02 in0.5 mm 0.02 in0.5 mm
03:31 PM 47.3°F8.5°C 36.1°F2.3°C 65% 4.6 mph NNE7.4 kmh NNE 11.5 mph18.5 kmh 30.79 in1042.7 mb - 0.02 in0.5 mm 0.02 in0.5 mm
03:26 PM 47.3°F8.5°C 36.1°F2.3°C 65% 5.8 mph NNE9.3 kmh NNE 9.2 mph14.8 kmh 30.79 in1042.7 mb - 0.02 in0.5 mm 0.02 in0.5 mm
03:20 PM 47.5°F8.6°C 36.3°F2.4°C 65% 4.6 mph NNE7.4 kmh NNE 10.3 mph16.6 kmh 30.79 in1042.7 mb - 0.02 in0.5 mm 0.02 in0.5 mm
03:15 PM 47.6°F8.7°C 36.4°F2.4°C 65% 3.4 mph NNE5.5 kmh NNE 4.6 mph7.4 kmh 30.79 in1042.7 mb - 0.02 in0.5 mm 0.02 in0.5 mm
03:09 PM 47.7°F8.7°C 36.5°F2.5°C 65% 3.4 mph NNE5.5 kmh NNE 9.2 mph14.8 kmh 30.78 in1042.3 mb - 0.02 in0.5 mm 0.02 in0.5 mm
03:03 PM 47.7°F8.7°C 36.5°F2.5°C 65% 4.6 mph N7.4 kmh N 9.2 mph14.8 kmh 30.78 in1042.3 mb - 0.02 in0.5 mm 0.02 in0.5 mm
02:58 PM 47.8°F8.8°C 36.6°F2.6°C 65% 3.4 mph N5.5 kmh N 9.2 mph14.8 kmh 30.78 in1042.3 mb - 0.02 in0.5 mm 0.02 in0.5 mm
02:52 PM 47.8°F8.8°C 37.0°F2.8°C 66% 2.3 mph NNE3.7 kmh NNE 11.5 mph18.5 kmh 30.78 in1042.3 mb - 0.02 in0.5 mm 0.02 in0.5 mm
02:46 PM 47.5°F8.6°C 36.7°F2.6°C 66% Calm Calm 9.2 mph14.8 kmh 30.77 in1042.0 mb - 0.02 in0.5 mm 0.02 in0.5 mm
02:41 PM 47.4°F8.6°C 37.0°F2.8°C 67% 3.4 mph N5.5 kmh N 4.6 mph7.4 kmh 30.77 in1042.0 mb - 0.02 in0.5 mm 0.02 in0.5 mm
02:35 PM 47.0°F8.3°C 37.0°F2.8°C 68% 1.1 mph NE1.8 kmh NE 3.4 mph5.5 kmh 30.77 in1042.0 mb - 0.02 in0.5 mm 0.02 in0.5 mm
02:30 PM 47.0°F8.3°C 37.0°F2.8°C 68% 1.1 mph NE1.8 kmh NE 4.6 mph7.4 kmh 30.77 in1042.0 mb - 0.02 in0.5 mm 0.02 in0.5 mm
02:24 PM 46.8°F8.2°C 36.8°F2.7°C 68% 3.4 mph NNE5.5 kmh NNE 9.2 mph14.8 kmh 30.77 in1042.0 mb - 0.02 in0.5 mm 0.02 in0.5 mm
02:18 PM 46.8°F8.2°C 36.8°F2.7°C 68% 1.1 mph NNE1.8 kmh NNE 11.5 mph18.5 kmh 30.77 in1042.0 mb - 0.02 in0.5 mm 0.02 in0.5 mm
02:13 PM 47.2°F8.4°C 37.5°F3.1°C 69% 1.1 mph NNE1.8 kmh NNE 11.5 mph18.5 kmh 30.77 in1042.0 mb - 0.02 in0.5 mm 0.02 in0.5 mm
02:07 PM 47.0°F8.3°C 37.0°F2.8°C 68% 3.4 mph N5.5 kmh N 9.2 mph14.8 kmh 30.77 in1042.0 mb - 0.02 in0.5 mm 0.02 in0.5 mm
02:01 PM 47.0°F8.3°C 37.3°F2.9°C 69% 1.1 mph NE1.8 kmh NE 8.0 mph12.9 kmh 30.77 in1042.0 mb - 0.02 in0.5 mm 0.02 in0.5 mm
01:56 PM 46.9°F8.3°C 37.3°F2.9°C 69% Calm Calm -- 30.77 in1042.0 mb - 0.02 in0.5 mm 0.02 in0.5 mm
01:50 PM 47.0°F8.3°C 37.4°F3.0°C 69% 3.4 mph NNE5.5 kmh NNE 11.5 mph18.5 kmh 30.77 in1042.0 mb - 0.02 in0.5 mm 0.02 in0.5 mm
01:45 PM 47.0°F8.3°C 37.4°F3.0°C 69% 2.3 mph N3.7 kmh N 11.5 mph18.5 kmh 30.77 in1042.0 mb - 0.02 in0.5 mm 0.02 in0.5 mm
01:39 PM 47.2°F8.4°C 37.5°F3.1°C 69% 3.4 mph NNE5.5 kmh NNE 9.2 mph14.8 kmh 30.76 in1041.7 mb - 0.02 in0.5 mm 0.02 in0.5 mm
01:33 PM 47.3°F8.5°C 37.6°F3.1°C 69% 5.8 mph NNE9.3 kmh NNE 11.5 mph18.5 kmh 30.76 in1041.7 mb - 0.02 in0.5 mm 0.02 in0.5 mm
01:28 PM 47.4°F8.6°C 37.7°F3.2°C 69% 4.6 mph NNE7.4 kmh NNE 10.3 mph16.6 kmh 30.76 in1041.7 mb - 0.02 in0.5 mm 0.02 in0.5 mm
01:22 PM 47.4°F8.6°C 37.7°F3.2°C 69% 4.6 mph NE7.4 kmh NE 10.3 mph16.6 kmh 30.76 in1041.7 mb - 0.02 in0.5 mm 0.02 in0.5 mm
01:16 PM 47.1°F8.4°C 38.2°F3.4°C 71% 1.1 mph NNE1.8 kmh NNE 8.0 mph12.9 kmh 30.76 in1041.7 mb - 0.02 in0.5 mm 0.02 in0.5 mm
01:11 PM 47.0°F8.3°C 38.1°F3.4°C 71% Calm Calm -- 30.75 in1041.3 mb - 0.02 in0.5 mm 0.02 in0.5 mm
01:05 PM 46.9°F8.3°C 38.3°F3.5°C 72% 4.6 mph NNE7.4 kmh NNE 8.0 mph12.9 kmh 30.75 in1041.3 mb - 0.02 in0.5 mm 0.02 in0.5 mm
01:00 PM 46.8°F8.2°C 38.2°F3.4°C 72% 1.1 mph N1.8 kmh N 8.0 mph12.9 kmh 30.75 in1041.3 mb - 0.02 in0.5 mm 0.02 in0.5 mm
12:54 PM 46.6°F8.1°C 38.0°F3.3°C 72% Calm Calm 8.0 mph12.9 kmh 30.75 in1041.3 mb - 0.02 in0.5 mm 0.02 in0.5 mm
12:48 PM 46.5°F8.1°C 38.0°F3.3°C 72% Calm Calm -- 30.75 in1041.3 mb - 0.02 in0.5 mm 0.02 in0.5 mm
12:43 PM 46.2°F7.9°C 37.7°F3.2°C 72% Calm Calm -- 30.75 in1041.3 mb - 0.02 in0.5 mm 0.02 in0.5 mm
12:37 PM 46.0°F7.8°C 37.9°F3.3°C 73% 3.4 mph N5.5 kmh N 8.0 mph12.9 kmh 30.75 in1041.3 mb - 0.02 in0.5 mm 0.02 in0.5 mm
12:31 PM 45.8°F7.7°C 38.4°F3.6°C 75% 1.1 mph NNE1.8 kmh NNE 3.4 mph5.5 kmh 30.75 in1041.3 mb - 0.02 in0.5 mm 0.02 in0.5 mm
12:26 PM 45.7°F7.6°C 37.9°F3.3°C 74% 3.4 mph N5.5 kmh N 4.6 mph7.4 kmh 30.75 in1041.3 mb - 0.02 in0.5 mm 0.02 in0.5 mm
12:20 PM 45.4°F7.4°C 37.9°F3.3°C 75% 3.4 mph N5.5 kmh N 8.0 mph12.9 kmh 30.75 in1041.3 mb - 0.02 in0.5 mm 0.02 in0.5 mm
12:15 PM 45.3°F7.4°C 37.8°F3.2°C 75% 3.4 mph N5.5 kmh N 9.2 mph14.8 kmh 30.75 in1041.3 mb - 0.02 in0.5 mm 0.02 in0.5 mm
12:09 PM 45.0°F7.2°C 37.9°F3.3°C 76% 4.6 mph N7.4 kmh N 11.5 mph18.5 kmh 30.75 in1041.3 mb - 0.02 in0.5 mm 0.02 in0.5 mm
12:03 PM 44.8°F7.1°C 38.1°F3.4°C 77% 3.4 mph N5.5 kmh N 8.0 mph12.9 kmh 30.75 in1041.3 mb - 0.02 in0.5 mm 0.02 in0.5 mm
11:58 AM 44.6°F7.0°C 38.1°F3.4°C 78% 3.4 mph NNE5.5 kmh NNE 9.2 mph14.8 kmh 30.75 in1041.3 mb - 0.02 in0.5 mm 0.02 in0.5 mm
11:52 AM 44.3°F6.8°C 38.2°F3.4°C 79% 3.4 mph N5.5 kmh N 3.4 mph5.5 kmh 30.74 in1041.0 mb - 0.02 in0.5 mm 0.02 in0.5 mm
11:46 AM 43.8°F6.6°C 37.7°F3.2°C 79% 2.3 mph N3.7 kmh N 6.9 mph11.1 kmh 30.74 in1041.0 mb - 0.02 in0.5 mm 0.02 in0.5 mm
11:41 AM 43.7°F6.5°C 37.6°F3.1°C 79% 3.4 mph NNE5.5 kmh NNE 4.6 mph7.4 kmh 30.74 in1041.0 mb - 0.02 in0.5 mm 0.02 in0.5 mm
11:35 AM 43.2°F6.2°C 37.5°F3.1°C 80% 2.3 mph NNW3.7 kmh NNW 4.6 mph7.4 kmh 30.74 in1041.0 mb - 0.02 in0.5 mm 0.02 in0.5 mm
11:30 AM 42.9°F6.1°C 37.5°F3.1°C 81% 3.4 mph NNW5.5 kmh NNW 6.9 mph11.1 kmh 30.74 in1041.0 mb - 0.02 in0.5 mm 0.02 in0.5 mm
11:24 AM 42.6°F5.9°C 37.5°F3.1°C 82% 3.4 mph N5.5 kmh N 5.8 mph9.3 kmh 30.74 in1041.0 mb - 0.02 in0.5 mm 0.02 in0.5 mm
11:18 AM 42.2°F5.7°C 37.4°F3.0°C 83% 2.3 mph NNW3.7 kmh NNW 4.6 mph7.4 kmh 30.74 in1041.0 mb - 0.02 in0.5 mm 0.02 in0.5 mm
11:13 AM 41.9°F5.5°C 37.4°F3.0°C 84% 2.3 mph N3.7 kmh N 3.4 mph5.5 kmh 30.74 in1041.0 mb - 0.02 in0.5 mm 0.02 in0.5 mm
11:07 AM 41.6°F5.3°C 37.4°F3.0°C 85% Calm Calm -- 30.74 in1041.0 mb - 0.02 in0.5 mm 0.02 in0.5 mm
11:01 AM 40.9°F4.9°C 37.0°F2.8°C 86% 2.3 mph N3.7 kmh N 3.4 mph5.5 kmh 30.73 in1040.6 mb - 0.02 in0.5 mm 0.02 in0.5 mm
10:56 AM 40.6°F4.8°C 36.7°F2.6°C 86% Calm Calm 2.3 mph3.7 kmh 30.73 in1040.6 mb - 0.02 in0.5 mm 0.02 in0.5 mm
10:50 AM 40.3°F4.6°C 36.7°F2.6°C 87% Calm Calm -- 30.73 in1040.6 mb - 0.02 in0.5 mm 0.02 in0.5 mm
10:45 AM 40.0°F4.4°C 36.4°F2.4°C 87% Calm Calm -- 30.73 in1040.6 mb - 0.02 in0.5 mm 0.02 in0.5 mm
10:39 AM 39.7°F4.3°C 36.2°F2.3°C 87% Calm Calm -- 30.72 in1040.3 mb - 0.02 in0.5 mm 0.02 in0.5 mm
10:33 AM 39.6°F4.2°C 36.0°F2.2°C 87% Calm Calm -- 30.72 in1040.3 mb - 0.02 in0.5 mm 0.02 in0.5 mm
10:28 AM 39.2°F4.0°C 36.0°F2.2°C 88% Calm Calm -- 30.72 in1040.3 mb - 0.02 in0.5 mm 0.02 in0.5 mm
10:22 AM 39.0°F3.9°C 35.8°F2.1°C 88% Calm Calm -- 30.71 in1040.0 mb - 0.02 in0.5 mm 0.02 in0.5 mm
10:16 AM 38.8°F3.8°C 35.6°F2.0°C 88% Calm Calm -- 30.71 in1040.0 mb - 0.02 in0.5 mm 0.02 in0.5 mm
10:11 AM 38.7°F3.7°C 35.4°F1.9°C 88% Calm Calm -- 30.71 in1040.0 mb - 0.02 in0.5 mm 0.02 in0.5 mm
10:05 AM 38.5°F3.6°C 35.3°F1.8°C 88% Calm Calm -- 30.70 in1039.6 mb - 0.02 in0.5 mm 0.02 in0.5 mm
10:00 AM 38.4°F3.6°C 35.2°F1.8°C 88% Calm Calm -- 30.70 in1039.6 mb - 0.02 in0.5 mm 0.02 in0.5 mm
09:54 AM 38.1°F3.4°C 34.9°F1.6°C 88% Calm Calm -- 30.69 in1039.3 mb - 0.02 in0.5 mm 0.02 in0.5 mm
09:48 AM 38.1°F3.4°C 34.8°F1.6°C 88% 1.1 mph NW1.8 kmh NW 2.3 mph3.7 kmh 30.69 in1039.3 mb - 0.02 in0.5 mm 0.02 in0.5 mm
09:43 AM 37.9°F3.3°C 34.7°F1.5°C 88% Calm Calm -- 30.69 in1039.3 mb - 0.02 in0.5 mm 0.02 in0.5 mm
09:37 AM 37.9°F3.3°C 34.7°F1.5°C 88% Calm Calm -- 30.69 in1039.3 mb - 0.02 in0.5 mm 0.02 in0.5 mm
09:31 AM 37.8°F3.2°C 34.6°F1.4°C 88% 1.1 mph NW1.8 kmh NW 2.3 mph3.7 kmh 30.68 in1038.9 mb - 0.02 in0.5 mm 0.02 in0.5 mm
09:26 AM 37.8°F3.2°C 34.5°F1.4°C 88% Calm Calm 2.3 mph3.7 kmh 30.68 in1038.9 mb - 0.02 in0.5 mm 0.02 in0.5 mm
09:20 AM 37.6°F3.1°C 34.4°F1.3°C 88% Calm Calm 1.1 mph1.8 kmh 30.68 in1038.9 mb - 0.02 in0.5 mm 0.02 in0.5 mm
09:15 AM 37.6°F3.1°C 34.4°F1.3°C 88% Calm Calm -- 30.68 in1038.9 mb - 0.02 in0.5 mm 0.02 in0.5 mm
09:09 AM 37.5°F3.1°C 34.0°F1.1°C 87% Calm Calm -- 30.67 in1038.6 mb - 0.02 in0.5 mm 0.02 in0.5 mm
09:03 AM 37.6°F3.1°C 34.1°F1.2°C 87% Calm Calm -- 30.67 in1038.6 mb - 0.02 in0.5 mm 0.02 in0.5 mm
08:58 AM 37.7°F3.2°C 34.2°F1.2°C 87% Calm Calm -- 30.66 in1038.3 mb - 0.02 in0.5 mm 0.02 in0.5 mm
08:52 AM 37.7°F3.2°C 34.2°F1.2°C 87% Calm Calm -- 30.66 in1038.3 mb - 0.02 in0.5 mm 0.02 in0.5 mm
08:46 AM 37.9°F3.3°C 34.3°F1.3°C 87% Calm Calm -- 30.65 in1037.9 mb - 0.02 in0.5 mm 0.02 in0.5 mm
08:41 AM 37.9°F3.3°C 34.3°F1.3°C 87% Calm Calm -- 30.65 in1037.9 mb - 0.02 in0.5 mm 0.02 in0.5 mm
08:35 AM 37.9°F3.3°C 34.4°F1.3°C 87% Calm Calm -- 30.65 in1037.9 mb - 0.02 in0.5 mm 0.02 in0.5 mm
08:30 AM 38.0°F3.3°C 34.5°F1.4°C 87% Calm Calm -- 30.65 in1037.9 mb - 0.02 in0.5 mm 0.02 in0.5 mm
08:24 AM 38.1°F3.4°C 34.9°F1.6°C 88% Calm Calm -- 30.64 in1037.6 mb - 0.02 in0.5 mm 0.02 in0.5 mm
08:18 AM 38.1°F3.4°C 35.1°F1.7°C 89% Calm Calm -- 30.64 in1037.6 mb - 0.02 in0.5 mm 0.02 in0.5 mm
08:13 AM 38.1°F3.4°C 34.6°F1.4°C 87% Calm Calm -- 30.64 in1037.6 mb - 0.02 in0.5 mm 0.02 in0.5 mm
08:07 AM 38.0°F3.3°C 34.5°F1.4°C 87% Calm Calm -- 30.63 in1037.3 mb - 0.02 in0.5 mm 0.02 in0.5 mm
08:01 AM 37.7°F3.2°C 34.2°F1.2°C 87% 3.4 mph N5.5 kmh N 9.2 mph14.8 kmh 30.64 in1037.6 mb - 0.02 in0.5 mm 0.02 in0.5 mm
07:56 AM 37.4°F3.0°C 33.6°F0.9°C 86% 2.3 mph NNE3.7 kmh NNE 9.2 mph14.8 kmh 30.64 in1037.6 mb - 0.01 in0.3 mm 0.01 in0.3 mm
07:50 AM 37.3°F2.9°C 33.5°F0.8°C 86% Calm Calm -- 30.62 in1036.9 mb - 0.00 in0.0 mm 0.00 in0.0 mm
07:45 AM 37.4°F3.0°C 33.6°F0.9°C 86% Calm Calm 1.1 mph1.8 kmh 30.61 in1036.6 mb - 0.00 in0.0 mm 0.00 in0.0 mm
07:39 AM 37.4°F3.0°C 33.3°F0.7°C 85% Calm Calm -- 30.61 in1036.6 mb - 0.00 in0.0 mm 0.00 in0.0 mm
07:33 AM 37.5°F3.1°C 33.4°F0.8°C 85% Calm Calm -- 30.61 in1036.6 mb - 0.00 in0.0 mm 0.00 in0.0 mm
07:28 AM 37.6°F3.1°C 33.5°F0.8°C 85% Calm Calm -- 30.61 in1036.6 mb - 0.00 in0.0 mm 0.00 in0.0 mm
07:22 AM 37.7°F3.2°C 33.6°F0.9°C 85% Calm Calm -- 30.61 in1036.6 mb - 0.00 in0.0 mm 0.00 in0.0 mm
07:16 AM 37.9°F3.3°C 33.8°F1.0°C 85% Calm Calm -- 30.61 in1036.6 mb - 0.00 in0.0 mm 0.00 in0.0 mm
07:11 AM 37.9°F3.3°C 33.8°F1.0°C 85% Calm Calm -- 30.61 in1036.6 mb - 0.00 in0.0 mm 0.00 in0.0 mm
07:05 AM 38.1°F3.4°C 34.0°F1.1°C 85% Calm Calm -- 30.60 in1036.2 mb - 0.00 in0.0 mm 0.00 in0.0 mm
07:00 AM 38.2°F3.4°C 34.1°F1.2°C 85% Calm Calm -- 30.60 in1036.2 mb - 0.00 in0.0 mm 0.00 in0.0 mm
06:54 AM 38.4°F3.6°C 34.3°F1.3°C 85% Calm Calm -- 30.60 in1036.2 mb - 0.00 in0.0 mm 0.00 in0.0 mm
06:48 AM 38.4°F3.6°C 34.3°F1.3°C 85% Calm Calm -- 30.60 in1036.2 mb - 0.00 in0.0 mm 0.00 in0.0 mm
06:43 AM 38.7°F3.7°C 34.6°F1.4°C 85% Calm Calm 2.3 mph3.7 kmh 30.59 in1035.9 mb - 0.00 in0.0 mm 0.00 in0.0 mm
06:37 AM 38.7°F3.7°C 34.6°F1.4°C 85% Calm Calm -- 30.59 in1035.9 mb - 0.00 in0.0 mm 0.00 in0.0 mm
06:31 AM 38.8°F3.8°C 34.6°F1.4°C 85% Calm Calm 2.3 mph3.7 kmh 30.59 in1035.9 mb - 0.00 in0.0 mm 0.00 in0.0 mm
06:26 AM 38.7°F3.7°C 34.6°F1.4°C 85% Calm Calm 2.3 mph3.7 kmh 30.59 in1035.9 mb - 0.00 in0.0 mm 0.00 in0.0 mm
06:20 AM 38.7°F3.7°C 34.5°F1.4°C 85% Calm Calm -- 30.59 in1035.9 mb - 0.00 in0.0 mm 0.00 in0.0 mm
06:15 AM 38.6°F3.7°C 34.4°F1.3°C 85% Calm Calm -- 30.59 in1035.9 mb - 0.00 in0.0 mm 0.00 in0.0 mm
06:09 AM 38.3°F3.5°C 34.2°F1.2°C 85% 1.1 mph NNW1.8 kmh NNW 3.4 mph5.5 kmh 30.59 in1035.9 mb - 0.00 in0.0 mm 0.00 in0.0 mm
06:03 AM 37.9°F3.3°C 33.2°F0.7°C 83% 1.1 mph NW1.8 kmh NW 8.0 mph12.9 kmh 30.59 in1035.9 mb - 0.00 in0.0 mm 0.00 in0.0 mm
05:58 AM 38.0°F3.3°C 33.3°F0.7°C 83% Calm Calm -- 30.58 in1035.6 mb - 0.00 in0.0 mm 0.00 in0.0 mm
05:52 AM 38.1°F3.4°C 33.4°F0.8°C 83% Calm Calm -- 30.58 in1035.6 mb - 0.00 in0.0 mm 0.00 in0.0 mm
05:46 AM 38.4°F3.6°C 33.6°F0.9°C 83% Calm Calm -- 30.58 in1035.6 mb - 0.00 in0.0 mm 0.00 in0.0 mm
05:41 AM 38.4°F3.6°C 33.7°F0.9°C 83% Calm Calm -- 30.58 in1035.6 mb - 0.00 in0.0 mm 0.00 in0.0 mm
05:35 AM 38.5°F3.6°C 33.8°F1.0°C 83% Calm Calm -- 30.58 in1035.6 mb - 0.00 in0.0 mm 0.00 in0.0 mm
05:30 AM 38.6°F3.7°C 33.9°F1.1°C 83% Calm Calm -- 30.58 in1035.6 mb - 0.00 in0.0 mm 0.00 in0.0 mm
05:24 AM 38.6°F3.7°C 33.9°F1.1°C 83% Calm Calm -- 30.57 in1035.2 mb - 0.00 in0.0 mm 0.00 in0.0 mm
05:18 AM 38.6°F3.7°C 33.9°F1.1°C 83% 1.1 mph NW1.8 kmh NW 2.3 mph3.7 kmh 30.57 in1035.2 mb - 0.00 in0.0 mm 0.00 in0.0 mm
05:13 AM 38.6°F3.7°C 33.9°F1.1°C 83% Calm Calm -- 30.57 in1035.2 mb - 0.00 in0.0 mm 0.00 in0.0 mm
05:07 AM 38.6°F3.7°C 33.9°F1.1°C 83% Calm Calm -- 30.58 in1035.6 mb - 0.00 in0.0 mm 0.00 in0.0 mm
05:01 AM 38.6°F3.7°C 33.9°F1.1°C 83% Calm Calm -- 30.58 in1035.6 mb - 0.00 in0.0 mm 0.00 in0.0 mm
04:56 AM 38.6°F3.7°C 33.9°F1.1°C 83% Calm Calm -- 30.58 in1035.6 mb - 0.00 in0.0 mm 0.00 in0.0 mm
04:50 AM 38.4°F3.6°C 34.3°F1.3°C 85% 1.1 mph NNW1.8 kmh NNW -- 30.57 in1035.2 mb - 0.00 in0.0 mm 0.00 in0.0 mm
04:45 AM 38.3°F3.5°C 34.2°F1.2°C 85% 1.1 mph N1.8 kmh N 3.4 mph5.5 kmh 30.57 in1035.2 mb - 0.00 in0.0 mm 0.00 in0.0 mm
04:39 AM 37.6°F3.1°C 33.8°F1.0°C 86% Calm Calm 8.0 mph12.9 kmh 30.57 in1035.2 mb - 0.00 in0.0 mm 0.00 in0.0 mm
04:33 AM 37.1°F2.8°C 33.3°F0.7°C 86% Calm Calm -- 30.57 in1035.2 mb - 0.00 in0.0 mm 0.00 in0.0 mm
04:28 AM 36.9°F2.7°C 33.1°F0.6°C 86% Calm Calm -- 30.57 in1035.2 mb - 0.00 in0.0 mm 0.00 in0.0 mm
04:22 AM 36.9°F2.7°C 33.1°F0.6°C 86% Calm Calm -- 30.56 in1034.9 mb - 0.00 in0.0 mm 0.00 in0.0 mm
04:16 AM 36.8°F2.7°C 32.7°F0.4°C 85% Calm Calm -- 30.56 in1034.9 mb - 0.00 in0.0 mm 0.00 in0.0 mm
04:11 AM 36.8°F2.7°C 32.7°F0.4°C 85% Calm Calm -- 30.56 in1034.9 mb - 0.00 in0.0 mm 0.00 in0.0 mm
04:05 AM 36.8°F2.7°C 32.4°F0.2°C 84% Calm Calm -- 30.56 in1034.9 mb - 0.00 in0.0 mm 0.00 in0.0 mm
04:00 AM 36.8°F2.7°C 32.1°F0.1°C 83% Calm Calm -- 30.56 in1034.9 mb - 0.00 in0.0 mm 0.00 in0.0 mm
03:54 AM 36.9°F2.7°C 32.2°F0.1°C 83% Calm Calm -- 30.55 in1034.5 mb - 0.00 in0.0 mm 0.00 in0.0 mm
03:48 AM 37.0°F2.8°C 32.3°F0.2°C 83% Calm Calm -- 30.55 in1034.5 mb - 0.00 in0.0 mm 0.00 in0.0 mm
03:43 AM 37.3°F2.9°C 32.3°F0.2°C 82% Calm Calm -- 30.55 in1034.5 mb - 0.00 in0.0 mm 0.00 in0.0 mm
03:37 AM 37.3°F2.9°C 32.3°F0.2°C 82% Calm Calm -- 30.55 in1034.5 mb - 0.00 in0.0 mm 0.00 in0.0 mm
03:31 AM 37.7°F3.2°C 32.7°F0.4°C 82% Calm Calm -- 30.55 in1034.5 mb - 0.00 in0.0 mm 0.00 in0.0 mm
03:26 AM 37.9°F3.3°C 33.2°F0.7°C 83% Calm Calm -- 30.55 in1034.5 mb - 0.00 in0.0 mm 0.00 in0.0 mm
03:20 AM 38.0°F3.3°C 33.3°F0.7°C 83% Calm Calm -- 30.55 in1034.5 mb - 0.00 in0.0 mm 0.00 in0.0 mm
03:15 AM 38.1°F3.4°C 33.4°F0.8°C 83% Calm Calm -- 30.55 in1034.5 mb - 0.00 in0.0 mm 0.00 in0.0 mm
03:09 AM 38.3°F3.5°C 33.6°F0.9°C 83% Calm Calm -- 30.55 in1034.5 mb - 0.00 in0.0 mm 0.00 in0.0 mm
03:03 AM 38.4°F3.6°C 33.4°F0.8°C 82% Calm Calm -- 30.54 in1034.2 mb - 0.00 in0.0 mm 0.00 in0.0 mm
02:58 AM 38.7°F3.7°C 33.7°F0.9°C 82% Calm Calm -- 30.54 in1034.2 mb - 0.00 in0.0 mm 0.00 in0.0 mm
02:52 AM 38.8°F3.8°C 33.8°F1.0°C 82% Calm Calm -- 30.54 in1034.2 mb - 0.00 in0.0 mm 0.00 in0.0 mm
02:46 AM 39.1°F3.9°C 34.1°F1.2°C 82% Calm Calm -- 30.54 in1034.2 mb - 0.00 in0.0 mm 0.00 in0.0 mm
02:41 AM 39.2°F4.0°C 34.2°F1.2°C 82% Calm Calm -- 30.54 in1034.2 mb - 0.00 in0.0 mm 0.00 in0.0 mm
02:35 AM 39.3°F4.1°C 34.3°F1.3°C 82% Calm Calm -- 30.54 in1034.2 mb - 0.00 in0.0 mm 0.00 in0.0 mm
02:30 AM 39.4°F4.1°C 34.4°F1.3°C 82% Calm Calm -- 30.53 in1033.9 mb - 0.00 in0.0 mm 0.00 in0.0 mm
02:24 AM 39.5°F4.2°C 34.5°F1.4°C 82% Calm Calm -- 30.53 in1033.9 mb - 0.00 in0.0 mm 0.00 in0.0 mm
02:18 AM 39.6°F4.2°C 34.5°F1.4°C 82% Calm Calm -- 30.53 in1033.9 mb - 0.00 in0.0 mm 0.00 in0.0 mm
02:13 AM 39.7°F4.3°C 34.3°F1.3°C 81% Calm Calm -- 30.52 in1033.5 mb - 0.00 in0.0 mm 0.00 in0.0 mm
02:07 AM 39.7°F4.3°C 34.3°F1.3°C 81% Calm Calm -- 30.52 in1033.5 mb - 0.00 in0.0 mm 0.00 in0.0 mm
02:01 AM 39.8°F4.3°C 34.4°F1.3°C 81% Calm Calm -- 30.52 in1033.5 mb - 0.00 in0.0 mm 0.00 in0.0 mm
01:56 AM 39.8°F4.3°C 34.4°F1.3°C 81% Calm Calm -- 30.52 in1033.5 mb - 0.00 in0.0 mm 0.00 in0.0 mm
01:50 AM 39.8°F4.3°C 34.4°F1.3°C 81% Calm Calm -- 30.52 in1033.5 mb - 0.00 in0.0 mm 0.00 in0.0 mm
01:45 AM 39.8°F4.3°C 34.4°F1.3°C 81% Calm Calm -- 30.52 in1033.5 mb - 0.00 in0.0 mm 0.00 in0.0 mm
01:39 AM 39.8°F4.3°C 34.4°F1.3°C 81% Calm Calm -- 30.51 in1033.2 mb - 0.00 in0.0 mm 0.00 in0.0 mm
01:33 AM 39.8°F4.3°C 34.5°F1.4°C 81% Calm Calm -- 30.51 in1033.2 mb - 0.00 in0.0 mm 0.00 in0.0 mm
01:28 AM 39.9°F4.4°C 34.5°F1.4°C 81% Calm Calm -- 30.51 in1033.2 mb - 0.00 in0.0 mm 0.00 in0.0 mm
01:22 AM 39.9°F4.4°C 34.5°F1.4°C 81% Calm Calm -- 30.51 in1033.2 mb - 0.00 in0.0 mm 0.00 in0.0 mm
01:16 AM 40.0°F4.4°C 34.6°F1.4°C 81% Calm Calm -- 30.51 in1033.2 mb - 0.00 in0.0 mm 0.00 in0.0 mm
01:11 AM 40.0°F4.4°C 34.9°F1.6°C 82% Calm Calm -- 30.50 in1032.8 mb - 0.00 in0.0 mm 0.00 in0.0 mm
01:05 AM 40.1°F4.5°C 35.0°F1.7°C 82% Calm Calm -- 30.50 in1032.8 mb - 0.00 in0.0 mm 0.00 in0.0 mm
01:00 AM 40.1°F4.5°C 35.0°F1.7°C 82% Calm Calm -- 30.50 in1032.8 mb - 0.00 in0.0 mm 0.00 in0.0 mm
12:54 AM 40.1°F4.5°C 35.4°F1.9°C 83% Calm Calm -- 30.50 in1032.8 mb - 0.00 in0.0 mm 0.00 in0.0 mm
12:48 AM 40.0°F4.4°C 35.3°F1.8°C 83% Calm Calm -- 30.49 in1032.5 mb - 0.00 in0.0 mm 0.00 in0.0 mm
12:43 AM 40.0°F4.4°C 35.3°F1.8°C 83% Calm Calm -- 30.49 in1032.5 mb - 0.00 in0.0 mm 0.00 in0.0 mm
12:37 AM 40.0°F4.4°C 35.3°F1.8°C 83% Calm Calm -- 30.49 in1032.5 mb - 0.00 in0.0 mm 0.00 in0.0 mm
12:31 AM 40.0°F4.4°C 35.6°F2.0°C 84% Calm Calm -- 30.49 in1032.5 mb - 0.00 in0.0 mm 0.00 in0.0 mm
12:26 AM 39.9°F4.4°C 35.5°F1.9°C 84% Calm Calm -- 30.49 in1032.5 mb - 0.00 in0.0 mm 0.00 in0.0 mm
12:20 AM 39.9°F4.4°C 35.5°F1.9°C 84% Calm Calm -- 30.48 in1032.2 mb - 0.00 in0.0 mm 0.00 in0.0 mm
12:15 AM 39.9°F4.4°C 35.5°F1.9°C 84% Calm Calm -- 30.48 in1032.2 mb - 0.00 in0.0 mm 0.00 in0.0 mm
12:09 AM 40.0°F4.4°C 35.3°F1.8°C 83% Calm Calm -- 30.48 in1032.2 mb - 0.00 in0.0 mm 0.00 in0.0 mm
12:03 AM 40.1°F4.5°C 35.4°F1.9°C 83% Calm Calm -- 30.48 in1032.2 mb - 0.00 in0.0 mm 0.00 in0.0 mm